sensor_id;sensor_type;location;lat;lon;timestamp;pressure;altitude;pressure_sealevel;temperature;humidity
35918;BME280;22011;59.912;30.300;2022-11-30T00:01:06;103808.00;;;0.81;65.45
35918;BME280;22011;59.912;30.300;2022-11-30T00:03:38;103810.56;;;0.84;65.51
35918;BME280;22011;59.912;30.300;2022-11-30T00:06:07;103809.72;;;0.82;65.89
35918;BME280;22011;59.912;30.300;2022-11-30T00:08:35;103802.72;;;0.82;65.57
35918;BME280;22011;59.912;30.300;2022-11-30T00:11:07;103812.22;;;0.89;66.02
35918;BME280;22011;59.912;30.300;2022-11-30T00:13:35;103806.16;;;0.86;65.54
35918;BME280;22011;59.912;30.300;2022-11-30T00:16:03;103811.47;;;0.83;65.40
35918;BME280;22011;59.912;30.300;2022-11-30T00:18:30;103810.59;;;0.82;65.50
35918;BME280;22011;59.912;30.300;2022-11-30T00:21:00;103805.25;;;0.88;65.60
35918;BME280;22011;59.912;30.300;2022-11-30T00:23:31;103809.47;;;0.95;65.45
35918;BME280;22011;59.912;30.300;2022-11-30T00:26:00;103805.22;;;0.90;65.21
35918;BME280;22011;59.912;30.300;2022-11-30T00:28:29;103807.09;;;0.83;65.23
35918;BME280;22011;59.912;30.300;2022-11-30T00:30:58;103808.81;;;0.84;65.32
35918;BME280;22011;59.912;30.300;2022-11-30T00:33:27;103810.66;;;0.79;65.65
35918;BME280;22011;59.912;30.300;2022-11-30T00:35:55;103808.00;;;0.81;65.87
35918;BME280;22011;59.912;30.300;2022-11-30T00:38:25;103809.78;;;0.79;65.85
35918;BME280;22011;59.912;30.300;2022-11-30T00:40:52;103810.72;;;0.76;65.71
35918;BME280;22011;59.912;30.300;2022-11-30T00:43:21;103808.97;;;0.75;65.97
35918;BME280;22011;59.912;30.300;2022-11-30T00:45:49;103809.91;;;0.73;65.85
35918;BME280;22011;59.912;30.300;2022-11-30T00:48:16;103806.38;;;0.74;66.11
35918;BME280;22011;59.912;30.300;2022-11-30T00:50:44;103798.44;;;0.78;65.98
35918;BME280;22011;59.912;30.300;2022-11-30T00:53:11;103798.44;;;0.78;65.57
35918;BME280;22011;59.912;30.300;2022-11-30T00:55:41;103807.13;;;0.80;65.98
35918;BME280;22011;59.912;30.300;2022-11-30T00:58:09;103807.25;;;0.74;65.50
35918;BME280;22011;59.912;30.300;2022-11-30T01:00:37;103805.56;;;0.70;65.84
35918;BME280;22011;59.912;30.300;2022-11-30T01:03:04;103796.81;;;0.71;65.78
35918;BME280;22011;59.912;30.300;2022-11-30T01:05:33;103795.91;;;0.72;65.73
35918;BME280;22011;59.912;30.300;2022-11-30T01:08:01;103796.03;;;0.64;65.87
35918;BME280;22011;59.912;30.300;2022-11-30T01:10:28;103790.88;;;0.60;66.09
35918;BME280;22011;59.912;30.300;2022-11-30T01:12:57;103807.47;;;0.62;66.26
35918;BME280;22011;59.912;30.300;2022-11-30T01:15:25;103800.47;;;0.61;66.29
35918;BME280;22011;59.912;30.300;2022-11-30T01:17:52;103805.69;;;0.64;66.06
35918;BME280;22011;59.912;30.300;2022-11-30T01:20:20;103802.09;;;0.68;65.70
35918;BME280;22011;59.912;30.300;2022-11-30T01:22:48;103800.41;;;0.65;65.68
35918;BME280;22011;59.912;30.300;2022-11-30T01:25:15;103797.03;;;0.59;65.64
35918;BME280;22011;59.912;30.300;2022-11-30T01:27:43;103794.38;;;0.60;66.07
35918;BME280;22011;59.912;30.300;2022-11-30T01:30:16;103793.41;;;0.66;65.91
35918;BME280;22011;59.912;30.300;2022-11-30T01:32:44;103790.00;;;0.59;65.63
35918;BME280;22011;59.912;30.300;2022-11-30T01:35:11;103787.38;;;0.61;65.57
35918;BME280;22011;59.912;30.300;2022-11-30T01:37:39;103801.41;;;0.58;65.67
35918;BME280;22011;59.912;30.300;2022-11-30T01:40:07;103795.22;;;0.61;65.52
35918;BME280;22011;59.912;30.300;2022-11-30T01:42:35;103798.75;;;0.60;65.83
35918;BME280;22011;59.912;30.300;2022-11-30T01:45:04;103796.09;;;0.61;65.68
35918;BME280;22011;59.912;30.300;2022-11-30T01:47:37;103790.69;;;0.71;65.88
35918;BME280;22011;59.912;30.300;2022-11-30T01:50:10;103802.94;;;0.70;65.91
35918;BME280;22011;59.912;30.300;2022-11-30T01:52:41;103796.84;;;0.68;65.60
35918;BME280;22011;59.912;30.300;2022-11-30T01:55:12;103791.00;;;1.02;65.80
35918;BME280;22011;59.912;30.300;2022-11-30T01:57:45;103786.31;;;0.71;65.32
35918;BME280;22011;59.912;30.300;2022-11-30T02:00:13;103782.94;;;0.63;65.17
35918;BME280;22011;59.912;30.300;2022-11-30T02:02:55;103787.88;;;0.81;65.86
35918;BME280;22011;59.912;30.300;2022-11-30T02:05:25;103791.00;;;1.02;65.72
35918;BME280;22011;59.912;30.300;2022-11-30T02:07:53;103795.06;;;0.70;65.21
35918;BME280;22011;59.912;30.300;2022-11-30T02:10:24;103796.78;;;0.73;65.40
35918;BME280;22011;59.912;30.300;2022-11-30T02:13:24;103793.00;;;0.87;65.87
35918;BME280;22011;59.912;30.300;2022-11-30T02:16:03;103792.59;;;0.62;65.24
35918;BME280;22011;59.912;30.300;2022-11-30T02:18:42;103791.59;;;0.68;65.81
35918;BME280;22011;59.912;30.300;2022-11-30T02:21:14;103801.34;;;0.61;65.61
35918;BME280;22011;59.912;30.300;2022-11-30T02:23:59;103793.25;;;0.74;65.86
35918;BME280;22011;59.912;30.300;2022-11-30T02:26:43;103795.88;;;0.74;65.83
35918;BME280;22011;59.912;30.300;2022-11-30T02:29:21;103800.31;;;0.70;65.35
35918;BME280;22011;59.912;30.300;2022-11-30T02:31:55;103800.38;;;0.67;65.26
35918;BME280;22011;59.912;30.300;2022-11-30T02:34:27;103798.75;;;0.60;65.23
35918;BME280;22011;59.912;30.300;2022-11-30T02:36:58;103793.44;;;0.63;64.82
35918;BME280;22011;59.912;30.300;2022-11-30T02:39:26;103797.84;;;0.62;64.87
35918;BME280;22011;59.912;30.300;2022-11-30T02:41:54;103789.19;;;0.57;64.79
35918;BME280;22011;59.912;30.300;2022-11-30T02:44:23;103799.66;;;0.59;65.25
35918;BME280;22011;59.912;30.300;2022-11-30T02:47:04;103801.13;;;0.74;65.70
35918;BME280;22011;59.912;30.300;2022-11-30T02:49:42;103800.31;;;0.70;65.12
35918;BME280;22011;59.912;30.300;2022-11-30T02:52:11;103790.91;;;0.58;64.90
35918;BME280;22011;59.912;30.300;2022-11-30T02:54:40;103794.44;;;0.57;64.86
35918;BME280;22011;59.912;30.300;2022-11-30T02:57:08;103797.97;;;0.55;64.61
35918;BME280;22011;59.912;30.300;2022-11-30T02:59:37;103792.69;;;0.56;64.99
35918;BME280;22011;59.912;30.300;2022-11-30T03:02:05;103790.09;;;0.55;65.00
35918;BME280;22011;59.912;30.300;2022-11-30T03:04:32;103783.97;;;0.54;64.84
35918;BME280;22011;59.912;30.300;2022-11-30T03:07:00;103788.38;;;0.52;65.03
35918;BME280;22011;59.912;30.300;2022-11-30T03:09:27;103797.97;;;0.55;64.69
35918;BME280;22011;59.912;30.300;2022-11-30T03:11:55;103786.47;;;0.62;64.69
35918;BME280;22011;59.912;30.300;2022-11-30T03:14:22;103796.19;;;0.57;64.78
35918;BME280;22011;59.912;30.300;2022-11-30T03:16:51;103782.13;;;0.61;64.91
35918;BME280;22011;59.912;30.300;2022-11-30T03:19:19;103793.63;;;0.52;64.65
35918;BME280;22011;59.912;30.300;2022-11-30T03:21:46;103789.34;;;0.47;65.09
35918;BME280;22011;59.912;30.300;2022-11-30T03:24:14;103784.94;;;0.50;64.96
35918;BME280;22011;59.912;30.300;2022-11-30T03:26:41;103782.25;;;0.53;64.98
35918;BME280;22011;59.912;30.300;2022-11-30T03:29:09;103777.78;;;0.58;65.27
35918;BME280;22011;59.912;30.300;2022-11-30T03:31:36;103784.75;;;0.61;64.95
35918;BME280;22011;59.912;30.300;2022-11-30T03:34:05;103795.09;;;0.69;65.13
35918;BME280;22011;59.912;30.300;2022-11-30T03:36:33;103788.19;;;0.63;65.14
35918;BME280;22011;59.912;30.300;2022-11-30T03:39:00;103785.56;;;0.63;64.93
35918;BME280;22011;59.912;30.300;2022-11-30T03:41:28;103777.69;;;0.64;64.80
35918;BME280;22011;59.912;30.300;2022-11-30T03:43:55;103775.88;;;0.68;64.73
35918;BME280;22011;59.912;30.300;2022-11-30T03:46:23;103772.34;;;0.69;64.51
35918;BME280;22011;59.912;30.300;2022-11-30T03:48:52;103778.50;;;0.68;64.52
35918;BME280;22011;59.912;30.300;2022-11-30T03:51:21;103776.72;;;0.69;65.29
35918;BME280;22011;59.912;30.300;2022-11-30T03:53:48;103779.38;;;0.67;65.09
35918;BME280;22011;59.912;30.300;2022-11-30T03:56:16;103775.88;;;0.68;64.97
35918;BME280;22011;59.912;30.300;2022-11-30T03:58:43;103775.00;;;0.68;64.56
35918;BME280;22011;59.912;30.300;2022-11-30T04:01:13;103771.47;;;0.69;64.96
35918;BME280;22011;59.912;30.300;2022-11-30T04:03:40;103781.94;;;0.70;64.98
35918;BME280;22011;59.912;30.300;2022-11-30T04:06:10;103774.84;;;0.75;64.57
35918;BME280;22011;59.912;30.300;2022-11-30T04:08:39;103773.91;;;0.79;64.27
35918;BME280;22011;59.912;30.300;2022-11-30T04:11:07;103778.34;;;0.76;64.01
35918;BME280;22011;59.912;30.300;2022-11-30T04:13:36;103776.69;;;0.72;64.36
35918;BME280;22011;59.912;30.300;2022-11-30T04:16:05;103774.97;;;0.69;64.51
35918;BME280;22011;59.912;30.300;2022-11-30T04:18:34;103775.63;;;0.82;63.71
35918;BME280;22011;59.912;30.300;2022-11-30T04:21:02;103774.16;;;0.65;64.19
35918;BME280;22011;59.912;30.300;2022-11-30T04:23:32;103763.78;;;0.59;64.22
35918;BME280;22011;59.912;30.300;2022-11-30T04:26:03;103759.31;;;0.64;64.45
35918;BME280;22011;59.912;30.300;2022-11-30T04:28:30;103766.22;;;0.69;64.15
35918;BME280;22011;59.912;30.300;2022-11-30T04:30:59;103769.09;;;0.55;64.22
35918;BME280;22011;59.912;30.300;2022-11-30T04:33:27;103776.25;;;0.47;64.47
35918;BME280;22011;59.912;30.300;2022-11-30T04:35:56;103781.53;;;0.44;64.64
35918;BME280;22011;59.912;30.300;2022-11-30T04:38:25;103780.59;;;0.48;64.73
35918;BME280;22011;59.912;30.300;2022-11-30T04:40:52;103771.00;;;0.47;64.61
35918;BME280;22011;59.912;30.300;2022-11-30T04:43:22;103775.31;;;0.51;64.60
35918;BME280;22011;59.912;30.300;2022-11-30T04:45:50;103787.66;;;0.44;64.60
35918;BME280;22011;59.912;30.300;2022-11-30T04:48:18;103787.69;;;0.43;64.48
35918;BME280;22011;59.912;30.300;2022-11-30T04:50:46;103784.13;;;0.45;64.69
35918;BME280;22011;59.912;30.300;2022-11-30T04:53:13;103774.50;;;0.46;64.73
35918;BME280;22011;59.912;30.300;2022-11-30T04:55:41;103780.66;;;0.45;64.70
35918;BME280;22011;59.912;30.300;2022-11-30T04:58:08;103783.28;;;0.45;64.61
35918;BME280;22011;59.912;30.300;2022-11-30T05:00:37;103769.22;;;0.49;65.07
35918;BME280;22011;59.912;30.300;2022-11-30T05:03:04;103769.31;;;0.43;64.70
35918;BME280;22011;59.912;30.300;2022-11-30T05:05:32;103771.94;;;0.43;64.79
35918;BME280;22011;59.912;30.300;2022-11-30T05:08:00;103763.09;;;0.48;64.78
35918;BME280;22011;59.912;30.300;2022-11-30T05:10:27;103760.41;;;0.53;64.62
35918;BME280;22011;59.912;30.300;2022-11-30T05:12:58;103766.56;;;0.50;64.05
35918;BME280;22011;59.912;30.300;2022-11-30T05:15:26;103760.06;;;0.71;63.73
35918;BME280;22011;59.912;30.300;2022-11-30T05:17:58;103763.75;;;0.61;64.83
35918;BME280;22011;59.912;30.300;2022-11-30T05:20:26;103764.00;;;0.47;63.95
35918;BME280;22011;59.912;30.300;2022-11-30T05:22:54;103770.19;;;0.43;64.20
35918;BME280;22011;59.912;30.300;2022-11-30T05:25:21;103765.44;;;0.63;63.84
35918;BME280;22011;59.912;30.300;2022-11-30T05:27:49;103771.38;;;0.75;63.37
35918;BME280;22011;59.912;30.300;2022-11-30T05:30:16;103761.78;;;0.72;63.53
35918;BME280;22011;59.912;30.300;2022-11-30T05:32:44;103763.47;;;0.76;63.14
35918;BME280;22011;59.912;30.300;2022-11-30T05:35:13;103769.44;;;0.84;63.00
35918;BME280;22011;59.912;30.300;2022-11-30T05:37:40;103771.66;;;0.59;63.57
35918;BME280;22011;59.912;30.300;2022-11-30T05:40:09;103767.22;;;0.63;63.65
35918;BME280;22011;59.912;30.300;2022-11-30T05:42:36;103763.03;;;0.53;63.73
35918;BME280;22011;59.912;30.300;2022-11-30T05:45:05;103771.94;;;0.43;63.60
35918;BME280;22011;59.912;30.300;2022-11-30T05:47:32;103779.84;;;0.41;63.91
35918;BME280;22011;59.912;30.300;2022-11-30T05:50:00;103788.69;;;0.36;63.63
35918;BME280;22011;59.912;30.300;2022-11-30T05:52:29;103786.09;;;0.32;64.22
35918;BME280;22011;59.912;30.300;2022-11-30T05:54:56;103787.03;;;0.30;64.18
35918;BME280;22011;59.912;30.300;2022-11-30T05:57:24;103799.25;;;0.29;63.93
35918;BME280;22011;59.912;30.300;2022-11-30T05:59:51;103795.69;;;0.33;63.86
35918;BME280;22011;59.912;30.300;2022-11-30T06:02:19;103794.00;;;0.31;63.95
35918;BME280;22011;59.912;30.300;2022-11-30T06:04:46;103790.47;;;0.33;64.02
35918;BME280;22011;59.912;30.300;2022-11-30T06:07:14;103794.03;;;0.29;64.09
35918;BME280;22011;59.912;30.300;2022-11-30T06:09:43;103797.50;;;0.30;64.18
35918;BME280;22011;59.912;30.300;2022-11-30T06:12:10;103809.81;;;0.26;64.02
35918;BME280;22011;59.912;30.300;2022-11-30T06:14:38;103801.13;;;0.23;63.93
35918;BME280;22011;59.912;30.300;2022-11-30T06:17:05;103800.34;;;0.16;64.08
35918;BME280;22011;59.912;30.300;2022-11-30T06:19:33;103800.31;;;0.19;64.26
35918;BME280;22011;59.912;30.300;2022-11-30T06:22:01;103802.91;;;0.21;64.46
35918;BME280;22011;59.912;30.300;2022-11-30T06:24:28;103796.75;;;0.22;64.23
35918;BME280;22011;59.912;30.300;2022-11-30T06:26:57;103802.78;;;0.28;64.32
35918;BME280;22011;59.912;30.300;2022-11-30T06:29:25;103801.03;;;0.27;64.39
35918;BME280;22011;59.912;30.300;2022-11-30T06:31:52;103813.31;;;0.25;63.91
35918;BME280;22011;59.912;30.300;2022-11-30T06:34:20;103813.31;;;0.25;64.28
35918;BME280;22011;59.912;30.300;2022-11-30T06:36:47;103813.38;;;0.22;64.28
35918;BME280;22011;59.912;30.300;2022-11-30T06:39:15;103814.28;;;0.20;64.70
35918;BME280;22011;59.912;30.300;2022-11-30T06:41:42;103814.31;;;0.17;64.69
35918;BME280;22011;59.912;30.300;2022-11-30T06:44:11;103809.97;;;0.16;64.48
35918;BME280;22011;59.912;30.300;2022-11-30T06:46:39;103816.22;;;0.07;64.37
35918;BME280;22011;59.912;30.300;2022-11-30T06:49:07;103810.88;;;0.13;64.67
35918;BME280;22011;59.912;30.300;2022-11-30T06:51:35;103813.41;;;0.19;64.38
35918;BME280;22011;59.912;30.300;2022-11-30T06:54:04;103817.75;;;0.20;64.44
35918;BME280;22011;59.912;30.300;2022-11-30T06:56:32;103818.59;;;0.22;64.38
35918;BME280;22011;59.912;30.300;2022-11-30T06:59:00;103823.00;;;0.20;64.36
35918;BME280;22011;59.912;30.300;2022-11-30T07:01:28;103819.53;;;0.20;64.42
35918;BME280;22011;59.912;30.300;2022-11-30T07:03:56;103825.75;;;0.13;64.14
35918;BME280;22011;59.912;30.300;2022-11-30T07:06:23;103818.75;;;0.13;64.57
35918;BME280;22011;59.912;30.300;2022-11-30T07:08:51;103831.84;;;0.15;64.38
35918;BME280;22011;59.912;30.300;2022-11-30T07:11:18;103818.66;;;0.19;64.45
35918;BME280;22011;59.912;30.300;2022-11-30T07:13:46;103821.97;;;0.30;64.40
35918;BME280;22011;59.912;30.300;2022-11-30T07:16:13;103815.78;;;0.35;63.79
35918;BME280;22011;59.912;30.300;2022-11-30T07:18:42;103819.28;;;0.35;63.97
35918;BME280;22011;59.912;30.300;2022-11-30T07:21:10;103818.47;;;0.31;64.03
35918;BME280;22011;59.912;30.300;2022-11-30T07:23:37;103815.84;;;0.31;64.22
35918;BME280;22011;59.912;30.300;2022-11-30T07:26:22;103820.94;;;0.41;63.75
35918;BME280;22011;59.912;30.300;2022-11-30T07:28:51;103824.34;;;0.46;63.83
35918;BME280;22011;59.912;30.300;2022-11-30T07:31:24;103821.72;;;0.46;63.75
35918;BME280;22011;59.912;30.300;2022-11-30T07:33:54;103816.47;;;0.46;63.81
35918;BME280;22011;59.912;30.300;2022-11-30T07:36:24;103819.84;;;0.54;63.58
35918;BME280;22011;59.912;30.300;2022-11-30T07:38:51;103824.44;;;0.41;63.81
35918;BME280;22011;59.912;30.300;2022-11-30T07:41:19;103804.31;;;0.42;63.57
35918;BME280;22011;59.912;30.300;2022-11-30T07:43:47;103806.00;;;0.46;63.79
35918;BME280;22011;59.912;30.300;2022-11-30T07:46:15;103805.88;;;0.52;64.10
35918;BME280;22011;59.912;30.300;2022-11-30T07:48:43;103809.31;;;0.57;63.43
35918;BME280;22011;59.912;30.300;2022-11-30T07:51:14;103810.06;;;0.63;63.45
35918;BME280;22011;59.912;30.300;2022-11-30T07:53:43;103817.22;;;0.54;62.28
35918;BME280;22011;59.912;30.300;2022-11-30T07:56:12;103818.13;;;0.53;62.90
35918;BME280;22011;59.912;30.300;2022-11-30T07:58:40;103821.69;;;0.49;63.55
35918;BME280;22011;59.912;30.300;2022-11-30T08:01:10;103831.19;;;0.56;63.69
35918;BME280;22011;59.912;30.300;2022-11-30T08:03:38;103820.69;;;0.56;63.55
35918;BME280;22011;59.912;30.300;2022-11-30T08:06:07;103830.34;;;0.54;63.02
35918;BME280;22011;59.912;30.300;2022-11-30T08:08:38;103825.88;;;0.59;63.73
35918;BME280;22011;59.912;30.300;2022-11-30T08:11:07;103829.56;;;0.47;63.49
35918;BME280;22011;59.912;30.300;2022-11-30T08:13:36;103832.22;;;0.46;63.77
35918;BME280;22011;59.912;30.300;2022-11-30T08:16:05;103824.31;;;0.47;63.60
35918;BME280;22011;59.912;30.300;2022-11-30T08:18:33;103826.94;;;0.49;63.62
35918;BME280;22011;59.912;30.300;2022-11-30T08:21:03;103824.19;;;0.55;63.39
35918;BME280;22011;59.912;30.300;2022-11-30T08:23:33;103817.16;;;0.57;63.05
35918;BME280;22011;59.912;30.300;2022-11-30T08:26:03;103821.47;;;0.61;63.42
35918;BME280;22011;59.912;30.300;2022-11-30T08:28:31;103825.97;;;0.53;63.14
35918;BME280;22011;59.912;30.300;2022-11-30T08:31:01;103819.03;;;0.50;62.81
35918;BME280;22011;59.912;30.300;2022-11-30T08:33:30;103816.34;;;0.55;62.63
35918;BME280;22011;59.912;30.300;2022-11-30T08:36:05;103821.31;;;0.70;63.08
35918;BME280;22011;59.912;30.300;2022-11-30T08:38:33;103818.97;;;0.55;62.75
35918;BME280;22011;59.912;30.300;2022-11-30T08:41:02;103823.22;;;0.60;62.96
35918;BME280;22011;59.912;30.300;2022-11-30T08:43:30;103830.28;;;0.57;62.45
35918;BME280;22011;59.912;30.300;2022-11-30T08:45:57;103828.56;;;0.56;62.74
35918;BME280;22011;59.912;30.300;2022-11-30T08:48:25;103819.91;;;0.49;62.68
35918;BME280;22011;59.912;30.300;2022-11-30T08:50:52;103816.44;;;0.49;62.87
35918;BME280;22011;59.912;30.300;2022-11-30T08:53:20;103815.50;;;0.51;62.88
35918;BME280;22011;59.912;30.300;2022-11-30T08:55:54;103816.06;;;0.70;63.25
35918;BME280;22011;59.912;30.300;2022-11-30T08:58:23;103814.34;;;0.69;62.44
35918;BME280;22011;59.912;30.300;2022-11-30T09:00:51;103805.63;;;0.67;62.18
35918;BME280;22011;59.912;30.300;2022-11-30T09:03:18;103793.41;;;0.66;62.03
35918;BME280;22011;59.912;30.300;2022-11-30T09:05:46;103793.41;;;0.66;61.80
35918;BME280;22011;59.912;30.300;2022-11-30T09:08:13;103782.91;;;0.66;61.98
35918;BME280;22011;59.912;30.300;2022-11-30T09:10:41;103789.00;;;0.67;62.11
35918;BME280;22011;59.912;30.300;2022-11-30T09:13:08;103789.94;;;0.64;62.09
35918;BME280;22011;59.912;30.300;2022-11-30T09:15:37;103792.56;;;0.64;61.80
35918;BME280;22011;59.912;30.300;2022-11-30T09:18:07;103798.81;;;0.57;61.78
35918;BME280;22011;59.912;30.300;2022-11-30T09:20:34;103790.13;;;0.53;61.77
35918;BME280;22011;59.912;30.300;2022-11-30T09:23:02;103782.22;;;0.55;61.87
35918;BME280;22011;59.912;30.300;2022-11-30T09:25:29;103781.22;;;0.62;62.22
35918;BME280;22011;59.912;30.300;2022-11-30T09:27:57;103782.78;;;0.72;62.05
35918;BME280;22011;59.912;30.300;2022-11-30T09:30:24;103787.09;;;0.76;61.60
35918;BME280;22011;59.912;30.300;2022-11-30T09:32:53;103774.84;;;0.75;61.40
35918;BME280;22011;59.912;30.300;2022-11-30T09:35:21;103782.88;;;0.68;61.70
35918;BME280;22011;59.912;30.300;2022-11-30T09:37:48;103781.28;;;0.59;61.74
35918;BME280;22011;59.912;30.300;2022-11-30T09:40:16;103779.63;;;0.53;61.98
35918;BME280;22011;59.912;30.300;2022-11-30T09:42:50;103796.03;;;0.64;62.05
35918;BME280;22011;59.912;30.300;2022-11-30T09:45:26;103789.06;;;0.63;62.12
35918;BME280;22011;59.912;30.300;2022-11-30T09:48:21;103791.28;;;0.86;62.67
35918;BME280;22011;59.912;30.300;2022-11-30T09:50:52;103795.91;;;0.72;61.92
35918;BME280;22011;59.912;30.300;2022-11-30T09:53:24;103798.47;;;0.75;61.49
35918;BME280;22011;59.912;30.300;2022-11-30T09:55:54;103795.06;;;0.70;61.42
35918;BME280;22011;59.912;30.300;2022-11-30T09:58:29;103793.97;;;0.82;61.94
35918;BME280;22011;59.912;30.300;2022-11-30T10:01:14;103793.22;;;0.75;60.89
35918;BME280;22011;59.912;30.300;2022-11-30T10:03:44;103799.34;;;0.76;60.91
35918;BME280;22011;59.912;30.300;2022-11-30T10:06:18;103800.19;;;0.78;61.57
35918;BME280;22011;59.912;30.300;2022-11-30T10:09:05;103801.06;;;0.77;61.67
35918;BME280;22011;59.912;30.300;2022-11-30T10:11:43;103792.31;;;0.78;61.54
35918;BME280;22011;59.912;30.300;2022-11-30T10:14:27;103794.13;;;0.74;61.47
35918;BME280;22011;59.912;30.300;2022-11-30T10:17:05;103794.09;;;0.76;61.65
35918;BME280;22011;59.912;30.300;2022-11-30T10:19:54;103803.59;;;0.83;61.30
35918;BME280;22011;59.912;30.300;2022-11-30T10:22:31;103795.81;;;0.78;61.25
35918;BME280;22011;59.912;30.300;2022-11-30T10:25:20;103793.06;;;0.84;61.29
35918;BME280;22011;59.912;30.300;2022-11-30T10:27:49;103795.03;;;0.72;60.88
35918;BME280;22011;59.912;30.300;2022-11-30T10:30:20;103796.81;;;0.71;60.95
35918;BME280;22011;59.912;30.300;2022-11-30T10:32:51;103793.28;;;0.72;60.76
35918;BME280;22011;59.912;30.300;2022-11-30T10:35:28;103799.16;;;0.86;60.79
35918;BME280;22011;59.912;30.300;2022-11-30T10:38:02;103793.03;;;0.86;60.23
35918;BME280;22011;59.912;30.300;2022-11-30T10:40:37;103786.84;;;0.90;60.54
35918;BME280;22011;59.912;30.300;2022-11-30T10:43:16;103793.84;;;0.89;60.41
35918;BME280;22011;59.912;30.300;2022-11-30T10:45:47;103797.81;;;0.64;60.21
35918;BME280;22011;59.912;30.300;2022-11-30T10:48:20;103796.81;;;0.71;60.69
35918;BME280;22011;59.912;30.300;2022-11-30T10:50:52;103795.22;;;0.61;60.28
35918;BME280;22011;59.912;30.300;2022-11-30T10:53:20;103797.94;;;0.56;60.28
35918;BME280;22011;59.912;30.300;2022-11-30T10:55:54;103797.88;;;0.59;60.64
35918;BME280;22011;59.912;30.300;2022-11-30T10:58:27;103791.81;;;0.56;60.83
35918;BME280;22011;59.912;30.300;2022-11-30T11:01:02;103786.44;;;0.63;60.53
35918;BME280;22011;59.912;30.300;2022-11-30T11:03:30;103783.00;;;0.60;60.18
35918;BME280;22011;59.912;30.300;2022-11-30T11:06:11;103788.75;;;0.80;60.62
35918;BME280;22011;59.912;30.300;2022-11-30T11:08:40;103792.56;;;0.64;59.54
35918;BME280;22011;59.912;30.300;2022-11-30T11:11:31;103785.16;;;0.86;60.26
35918;BME280;22011;59.912;30.300;2022-11-30T11:14:13;103791.53;;;0.73;60.42
35918;BME280;22011;59.912;30.300;2022-11-30T11:16:52;103789.06;;;0.63;60.45
35918;BME280;22011;59.912;30.300;2022-11-30T11:19:29;103792.69;;;0.56;60.45
35918;BME280;22011;59.912;30.300;2022-11-30T11:22:00;103797.97;;;0.55;60.15
35918;BME280;22011;59.912;30.300;2022-11-30T11:24:28;103790.00;;;0.61;59.15
35918;BME280;22011;59.912;30.300;2022-11-30T11:26:56;103786.38;;;0.67;59.12
35918;BME280;22011;59.912;30.300;2022-11-30T11:29:26;103784.59;;;0.69;59.25
35918;BME280;22011;59.912;30.300;2022-11-30T11:32:18;103789.41;;;0.93;60.11
35918;BME280;22011;59.912;30.300;2022-11-30T11:34:47;103783.59;;;0.76;58.76
35918;BME280;22011;59.912;30.300;2022-11-30T11:37:24;103782.38;;;0.93;59.63
35918;BME280;22011;59.912;30.300;2022-11-30T11:40:12;103784.13;;;0.94;59.57
35918;BME280;22011;59.912;30.300;2022-11-30T11:42:43;103786.91;;;0.85;58.69
35918;BME280;22011;59.912;30.300;2022-11-30T11:45:15;103787.75;;;0.87;58.99
35918;BME280;22011;59.912;30.300;2022-11-30T11:47:44;103787.03;;;0.79;58.84
35918;BME280;22011;59.912;30.300;2022-11-30T11:50:24;103793.19;;;0.78;59.99
35918;BME280;22011;59.912;30.300;2022-11-30T11:53:15;103779.31;;;0.70;60.65
35918;BME280;22011;59.912;30.300;2022-11-30T11:55:50;103777.91;;;0.51;60.25
35918;BME280;22011;59.912;30.300;2022-11-30T11:58:29;103781.22;;;0.62;60.10
35918;BME280;22011;59.912;30.300;2022-11-30T12:01:00;103782.00;;;0.67;59.60
35918;BME280;22011;59.912;30.300;2022-11-30T12:03:34;103782.72;;;0.75;59.58
35918;BME280;22011;59.912;30.300;2022-11-30T12:06:09;103781.94;;;0.72;59.40
35918;BME280;22011;59.912;30.300;2022-11-30T12:08:45;103781.91;;;0.73;59.78
35918;BME280;22011;59.912;30.300;2022-11-30T12:11:17;103783.72;;;0.70;59.21
35918;BME280;22011;59.912;30.300;2022-11-30T12:13:47;103788.16;;;0.66;59.25
35918;BME280;22011;59.912;30.300;2022-11-30T12:16:31;103786.13;;;0.82;60.04
35918;BME280;22011;59.912;30.300;2022-11-30T12:19:11;103781.09;;;0.70;60.00
35918;BME280;22011;59.912;30.300;2022-11-30T12:21:49;103783.75;;;0.67;59.74
35918;BME280;22011;59.912;30.300;2022-11-30T12:24:35;103772.28;;;0.72;60.04
35918;BME280;22011;59.912;30.300;2022-11-30T12:27:10;103782.16;;;0.58;59.85
35918;BME280;22011;59.912;30.300;2022-11-30T12:29:48;103777.78;;;0.58;60.05
35918;BME280;22011;59.912;30.300;2022-11-30T12:32:25;103768.97;;;0.62;60.04
35918;BME280;22011;59.912;30.300;2022-11-30T12:35:06;103778.53;;;0.67;60.26
35918;BME280;22011;59.912;30.300;2022-11-30T12:37:45;103783.81;;;0.63;59.73
35918;BME280;22011;59.912;30.300;2022-11-30T12:40:27;103787.31;;;0.64;59.93
35918;BME280;22011;59.912;30.300;2022-11-30T12:43:05;103782.13;;;0.61;59.54
35918;BME280;22011;59.912;30.300;2022-11-30T12:45:41;103787.47;;;0.55;59.46
35918;BME280;22011;59.912;30.300;2022-11-30T12:48:18;103790.00;;;0.59;59.60
35918;BME280;22011;59.912;30.300;2022-11-30T12:50:58;103791.81;;;0.56;59.87
35918;BME280;22011;59.912;30.300;2022-11-30T12:53:31;103797.06;;;0.56;59.68
35918;BME280;22011;59.912;30.300;2022-11-30T12:56:11;103797.03;;;0.59;59.91
35918;BME280;22011;59.912;30.300;2022-11-30T12:58:48;103807.63;;;0.53;59.76
35918;BME280;22011;59.912;30.300;2022-11-30T13:01:31;103796.03;;;0.64;59.83
35918;BME280;22011;59.912;30.300;2022-11-30T13:04:06;103797.03;;;0.59;59.48
35918;BME280;22011;59.912;30.300;2022-11-30T13:06:43;103786.50;;;0.60;59.16
35918;BME280;22011;59.912;30.300;2022-11-30T13:09:17;103808.31;;;0.64;59.36